createdAt,value
2022-08-07T00:02:37.182Z,13.91
2022-08-07T00:04:09.236Z,13.94
2022-08-07T00:06:36.459Z,14.01
2022-08-07T00:09:16.116Z,14.08
2022-08-07T00:11:54.206Z,14.04
2022-08-07T00:14:29.825Z,13.96
2022-08-07T00:17:02.515Z,13.77
2022-08-07T00:20:00.209Z,13.71
2022-08-07T00:22:24.937Z,13.75
2022-08-07T00:27:52.796Z,13.72
2022-08-07T00:30:26.349Z,13.88
2022-08-07T00:32:54.839Z,13.91
2022-08-07T00:35:23.091Z,13.75
2022-08-07T00:37:50.190Z,13.50
2022-08-07T00:40:17.531Z,13.37
2022-08-07T00:43:04.179Z,13.42
2022-08-07T00:45:36.738Z,13.52
2022-08-07T00:48:09.273Z,13.43
2022-08-07T00:50:46.105Z,13.43
2022-08-07T00:53:17.580Z,13.46
2022-08-07T00:56:02.646Z,13.21
2022-08-07T00:58:30.551Z,13.11
2022-08-07T01:00:58.041Z,13.00
2022-08-07T01:03:25.473Z,12.93
2022-08-07T01:06:12.392Z,12.92
2022-08-07T01:08:43.040Z,12.89
2022-08-07T01:12:27.439Z,12.81
2022-08-07T01:14:05.010Z,12.81
2022-08-07T01:16:31.954Z,12.77
2022-08-07T01:18:58.571Z,12.74
2022-08-07T01:21:26.983Z,12.81
2022-08-07T01:23:57.004Z,12.81
2022-08-07T01:26:26.117Z,12.81
2022-08-07T01:28:54.550Z,12.80
2022-08-07T01:31:27.850Z,12.68
2022-08-07T01:34:08.476Z,12.61
2022-08-07T01:36:40.421Z,12.64
2022-08-07T01:39:10.171Z,12.70
2022-08-07T01:41:38.910Z,12.61
2022-08-07T01:44:07.679Z,12.60
2022-08-07T01:46:34.638Z,12.59
2022-08-07T01:49:02.419Z,12.44
2022-08-07T01:52:03.503Z,12.37
2022-08-07T01:54:33.128Z,12.34
2022-08-07T01:57:24.969Z,12.37
2022-08-07T02:00:01.834Z,12.55
2022-08-07T02:03:18.938Z,12.84
2022-08-07T02:06:01.097Z,12.91
2022-08-07T02:08:30.526Z,13.01
2022-08-07T02:11:00.063Z,13.13
2022-08-07T02:13:57.713Z,13.25
2022-08-07T02:16:20.089Z,13.34
2022-08-07T02:18:56.529Z,13.32
2022-08-07T02:21:25.335Z,13.28
2022-08-07T02:23:53.155Z,13.30
2022-08-07T02:26:32.313Z,13.35
2022-08-07T02:29:03.000Z,13.39
2022-08-07T02:31:31.133Z,13.43
2022-08-07T02:34:02.955Z,13.51
2022-08-07T02:36:32.762Z,13.46
2022-08-07T02:39:16.034Z,13.29
2022-08-07T02:41:47.257Z,13.40
2022-08-07T02:44:18.615Z,13.36
2022-08-07T02:46:52.536Z,13.29
2022-08-07T02:49:29.198Z,13.30
2022-08-07T02:52:12.973Z,13.41
2022-08-07T02:54:42.434Z,13.47
2022-08-07T02:57:15.809Z,13.50
2022-08-07T03:00:00.891Z,13.41
2022-08-07T03:02:28.491Z,13.38
2022-08-07T03:04:56.433Z,13.39
2022-08-07T03:08:05.109Z,13.36
2022-08-07T03:10:14.297Z,13.45
2022-08-07T03:12:42.045Z,13.35
2022-08-07T03:15:10.781Z,13.12
2022-08-07T03:17:52.887Z,13.05
2022-08-07T03:20:20.150Z,12.95
2022-08-07T03:22:50.307Z,12.82
2022-08-07T03:25:18.253Z,12.74
2022-08-07T03:28:08.953Z,12.66
2022-08-07T03:30:37.456Z,12.63
2022-08-07T03:33:05.148Z,12.60
2022-08-07T03:35:43.971Z,12.66
2022-08-07T03:38:17.915Z,12.74
2022-08-07T03:40:57.169Z,12.83
2022-08-07T03:43:26.593Z,12.76
2022-08-07T03:45:59.634Z,12.70
2022-08-07T03:48:26.940Z,12.69
2022-08-07T03:50:57.910Z,12.69
2022-08-07T03:54:00.633Z,12.61
2022-08-07T03:56:16.276Z,12.47
2022-08-07T03:59:08.019Z,12.51
2022-08-07T04:01:32.241Z,12.37
2022-08-07T04:03:59.183Z,12.26
2022-08-07T04:06:38.400Z,12.27
2022-08-07T04:09:06.518Z,12.18
2022-08-07T04:12:25.061Z,12.22
2022-08-07T04:14:37.778Z,12.25
2022-08-07T04:17:21.255Z,12.23
2022-08-07T04:19:52.666Z,12.18
2022-08-07T04:22:27.555Z,12.20
2022-08-07T04:24:58.100Z,12.25
2022-08-07T04:27:26.444Z,12.33
2022-08-07T04:29:58.244Z,12.41
2022-08-07T04:32:34.319Z,12.29
2022-08-07T04:35:05.741Z,12.24
2022-08-07T04:38:00.931Z,12.19
2022-08-07T04:40:20.616Z,12.22
2022-08-07T04:42:51.825Z,12.29
2022-08-07T04:45:22.804Z,12.33
2022-08-07T04:48:12.926Z,12.48
2022-08-07T04:50:45.422Z,12.61
2022-08-07T04:54:01.064Z,12.82
2022-08-07T04:58:16.699Z,13.01
2022-08-07T05:00:09.602Z,13.17
2022-08-07T05:02:43.850Z,13.17
2022-08-07T05:05:53.606Z,13.31
2022-08-07T05:08:58.995Z,13.38
2022-08-07T05:11:57.231Z,13.40
2022-08-07T05:14:53.899Z,13.45
2022-08-07T05:18:00.879Z,13.57
2022-08-07T05:20:09.976Z,13.59
2022-08-07T05:22:39.137Z,13.73
2022-08-07T05:25:08.771Z,13.86
2022-08-07T05:28:16.167Z,13.88
2022-08-07T05:30:32.415Z,13.87
2022-08-07T05:33:02.478Z,13.93
2022-08-07T05:35:33.077Z,13.95
2022-08-07T05:38:08.322Z,14.04
2022-08-07T05:40:49.547Z,14.02
2022-08-07T05:43:18.592Z,14.17
2022-08-07T05:45:48.138Z,14.29
2022-08-07T05:48:15.584Z,14.30
2022-08-07T05:50:43.569Z,14.39
2022-08-07T05:54:13.219Z,14.49
2022-08-07T05:56:03.636Z,14.56
2022-08-07T05:58:37.139Z,14.64
2022-08-07T06:01:10.644Z,14.66
2022-08-07T06:03:56.915Z,14.63
2022-08-07T06:06:32.195Z,14.73
2022-08-07T06:09:01.056Z,14.86
2022-08-07T06:11:28.360Z,14.85
2022-08-07T06:14:11.884Z,14.97
2022-08-07T06:16:50.734Z,15.13
2022-08-07T06:19:52.335Z,15.14
2022-08-07T06:22:22.603Z,15.26
2022-08-07T06:24:56.815Z,15.32
2022-08-07T06:27:44.258Z,15.30
2022-08-07T06:30:24.064Z,15.44
2022-08-07T06:32:59.059Z,15.53
2022-08-07T06:35:30.557Z,15.55
2022-08-07T06:38:09.983Z,15.59
2022-08-07T06:40:53.197Z,15.78
2022-08-07T06:43:23.559Z,15.93
2022-08-07T06:45:50.830Z,16.02
2022-08-07T06:48:25.218Z,16.17
2022-08-07T06:50:54.768Z,16.25
2022-08-07T06:55:29.446Z,16.34
2022-08-07T06:56:15.173Z,16.54
2022-08-07T07:00:13.923Z,16.57
2022-08-07T07:01:43.972Z,16.69
2022-08-07T07:04:28.418Z,16.87
2022-08-07T07:07:01.138Z,17.09
2022-08-07T07:09:31.377Z,17.17
2022-08-07T07:12:07.848Z,17.25
2022-08-07T07:14:58.063Z,17.37
2022-08-07T07:17:54.452Z,17.45
2022-08-07T07:20:29.738Z,17.55
2022-08-07T07:24:09.622Z,17.59
2022-08-07T07:26:32.288Z,17.74
2022-08-07T07:29:22.726Z,17.94
2022-08-07T07:31:46.948Z,18.14
2022-08-07T07:34:30.806Z,18.27
2022-08-07T07:37:14.503Z,18.43
2022-08-07T07:39:54.744Z,18.53
2022-08-07T07:42:25.892Z,18.44
2022-08-07T07:45:04.142Z,18.52
2022-08-07T07:47:52.250Z,18.68
2022-08-07T07:50:33.398Z,18.78
2022-08-07T07:53:20.401Z,18.85
2022-08-07T07:55:54.951Z,18.95
2022-08-07T07:58:31.006Z,19.16
2022-08-07T08:02:02.856Z,19.21
2022-08-07T08:04:10.100Z,19.19
2022-08-07T08:06:40.718Z,19.42
2022-08-07T08:09:20.565Z,19.43
2022-08-07T08:12:02.199Z,19.53
2022-08-07T08:14:32.168Z,19.64
2022-08-07T08:17:55.655Z,19.75
2022-08-07T08:20:18.198Z,19.99
2022-08-07T08:22:59.831Z,20.04
2022-08-07T08:25:49.100Z,20.22
2022-08-07T08:28:24.100Z,20.52
2022-08-07T08:31:07.707Z,20.66
2022-08-07T08:33:49.022Z,20.52
2022-08-07T08:36:16.982Z,20.64
2022-08-07T08:38:46.148Z,20.74
2022-08-07T08:41:18.294Z,20.95
2022-08-07T08:44:10.880Z,21.01
2022-08-07T08:46:50.525Z,21.21
2022-08-07T08:49:33.432Z,21.45
2022-08-07T08:52:30.473Z,21.34
2022-08-07T08:55:55.496Z,21.37
2022-08-07T08:58:31.986Z,21.52
2022-08-07T09:01:19.221Z,21.29
2022-08-07T09:03:56.774Z,21.38
2022-08-07T09:06:40.380Z,21.57
2022-08-07T09:09:30.186Z,21.70
2022-08-07T09:12:31.082Z,21.51
2022-08-07T09:16:20.114Z,21.49
2022-08-07T09:18:15.802Z,21.76
2022-08-07T09:20:57.988Z,21.83
2022-08-07T09:26:39.216Z,22.24
2022-08-07T09:30:03.759Z,22.35
2022-08-07T09:32:57.827Z,22.57
2022-08-07T09:36:04.386Z,22.50
2022-08-07T09:38:42.518Z,22.60
2022-08-07T09:41:58.984Z,22.56
2022-08-07T09:47:24.464Z,22.69
2022-08-07T09:47:56.088Z,22.69
2022-08-07T09:50:40.398Z,22.86
2022-08-07T09:53:12.661Z,23.03
2022-08-07T09:56:13.587Z,23.10
2022-08-07T09:58:53.587Z,23.08
2022-08-07T10:01:51.018Z,23.09
2022-08-07T10:04:52.735Z,23.21
2022-08-07T10:07:53.411Z,23.23
2022-08-07T10:11:07.774Z,23.28
2022-08-07T10:14:00.733Z,23.33
2022-08-07T10:17:00.830Z,23.21
2022-08-07T10:19:39.778Z,22.94
2022-08-07T10:22:38.973Z,23.31
2022-08-07T10:25:42.824Z,23.61
2022-08-07T10:28:31.015Z,23.78
2022-08-07T10:31:11.734Z,23.98
2022-08-07T10:34:18.232Z,23.47
2022-08-07T10:37:18.879Z,23.05
2022-08-07T10:40:03.532Z,22.86
2022-08-07T10:42:51.848Z,22.58
2022-08-07T10:45:57.609Z,22.49
2022-08-07T10:48:41.421Z,22.39
2022-08-07T10:51:38.876Z,22.54
2022-08-07T10:54:17.404Z,22.77
2022-08-07T10:57:06.293Z,22.68
2022-08-07T10:59:48.341Z,22.81
2022-08-07T11:02:49.455Z,23.09
2022-08-07T11:05:48.912Z,23.27
2022-08-07T11:08:36.479Z,23.17
2022-08-07T11:11:35.964Z,23.15
2022-08-07T11:14:45.535Z,23.06
2022-08-07T11:17:01.808Z,23.02
2022-08-07T11:19:52.981Z,23.12
2022-08-07T11:22:43.957Z,23.16
2022-08-07T11:25:21.518Z,23.09
2022-08-07T11:28:15.494Z,23.19
2022-08-07T11:30:52.298Z,23.25
2022-08-07T11:33:53.926Z,23.26
2022-08-07T11:36:25.470Z,23.35
2022-08-07T11:39:19.732Z,23.30
2022-08-07T11:42:21.823Z,23.42
2022-08-07T11:45:35.528Z,23.48
2022-08-07T11:48:29.748Z,23.53
2022-08-07T11:51:40.832Z,23.61
2022-08-07T11:54:35.944Z,23.68
2022-08-07T11:58:00.526Z,23.71
2022-08-07T12:00:24.542Z,23.81
2022-08-07T12:03:44.874Z,23.81
2022-08-07T12:06:57.279Z,23.81
2022-08-07T12:09:42.895Z,23.65
2022-08-07T12:12:18.870Z,23.80
2022-08-07T12:15:00.236Z,23.76
2022-08-07T12:17:37.345Z,23.62
2022-08-07T12:20:18.589Z,24.47
2022-08-07T12:23:10.231Z,25.08
2022-08-07T12:26:23.268Z,24.77
2022-08-07T12:28:56.165Z,24.56
2022-08-07T12:31:52.559Z,24.50
2022-08-07T12:34:20.539Z,24.17
2022-08-07T12:36:49.600Z,23.98
2022-08-07T12:39:42.567Z,23.94
2022-08-07T12:42:10.441Z,24.14
2022-08-07T12:44:45.106Z,24.39
2022-08-07T12:47:21.762Z,25.04
2022-08-07T12:50:38.088Z,25.58
2022-08-07T12:54:36.418Z,25.13
2022-08-07T12:56:35.957Z,24.63
2022-08-07T12:59:08.411Z,24.16
2022-08-07T13:02:02.877Z,24.27
2022-08-07T13:05:01.456Z,24.34
2022-08-07T13:08:13.444Z,24.22
2022-08-07T13:10:51.537Z,24.23
2022-08-07T13:13:48.559Z,24.18
2022-08-07T13:16:31.071Z,24.30
2022-08-07T13:19:11.351Z,24.48
2022-08-07T13:22:02.082Z,24.65
2022-08-07T13:24:52.444Z,24.33
2022-08-07T13:27:23.223Z,24.10
2022-08-07T13:30:18.864Z,24.04
2022-08-07T13:34:14.862Z,24.22
2022-08-07T13:36:09.846Z,24.51
2022-08-07T13:39:03.117Z,24.43
2022-08-07T13:41:47.473Z,24.18
2022-08-07T13:44:26.090Z,24.11
2022-08-07T13:46:58.833Z,24.39
2022-08-07T13:50:34.784Z,24.69
2022-08-07T13:52:32.107Z,24.61
2022-08-07T13:55:11.036Z,24.47
2022-08-07T13:57:59.043Z,24.37
2022-08-07T14:00:39.682Z,24.32
2022-08-07T14:03:29.160Z,24.39
2022-08-07T14:06:13.870Z,24.33
2022-08-07T14:08:48.740Z,24.38
2022-08-07T14:11:23.240Z,24.38
2022-08-07T14:13:58.250Z,24.52
2022-08-07T14:16:31.276Z,24.81
2022-08-07T14:19:01.545Z,24.84
2022-08-07T14:22:01.717Z,24.48
2022-08-07T14:24:47.980Z,24.57
2022-08-07T14:28:10.809Z,24.70
2022-08-07T14:30:12.681Z,24.63
2022-08-07T14:32:45.572Z,24.56
2022-08-07T14:35:45.646Z,24.38
2022-08-07T14:38:26.889Z,24.21
2022-08-07T14:41:03.839Z,24.17
2022-08-07T14:46:30.703Z,24.33
2022-08-07T14:49:00.251Z,24.14
2022-08-07T14:52:04.280Z,24.18
2022-08-07T14:54:41.912Z,24.28
2022-08-07T15:00:06.684Z,23.95
2022-08-07T15:02:35.070Z,23.76
2022-08-07T15:05:04.664Z,23.85
2022-08-07T15:07:52.251Z,23.88
2022-08-07T15:13:16.640Z,23.62
2022-08-07T15:15:52.684Z,23.60
2022-08-07T15:18:28.571Z,23.68
2022-08-07T15:21:08.219Z,23.68
2022-08-07T15:26:36.845Z,23.67
2022-08-07T15:30:04.694Z,23.66
2022-08-07T15:32:01.876Z,23.64
2022-08-07T15:34:55.504Z,23.62
2022-08-07T15:38:17.847Z,23.60
2022-08-07T15:46:32.155Z,23.72
2022-08-07T15:49:12.859Z,23.79
2022-08-07T15:54:39.410Z,23.90
2022-08-07T15:57:10.788Z,23.95
2022-08-07T15:59:59.359Z,23.88
2022-08-07T16:02:29.963Z,23.89
2022-08-07T16:05:04.284Z,23.74
2022-08-07T16:08:31.291Z,23.67
2022-08-07T16:10:59.887Z,23.70
2022-08-07T16:13:59.780Z,23.66
2022-08-07T16:16:59.904Z,23.50
2022-08-07T16:19:42.883Z,23.41
2022-08-07T16:22:56.571Z,23.35
2022-08-07T16:25:55.093Z,23.18
2022-08-07T16:30:05.842Z,23.18
2022-08-07T16:31:57.589Z,23.17
2022-08-07T16:34:31.871Z,23.22
2022-08-07T16:37:01.696Z,23.38
2022-08-07T16:39:33.542Z,23.35
2022-08-07T16:42:24.999Z,23.38
2022-08-07T16:45:15.516Z,23.45
2022-08-07T16:47:54.613Z,23.42
2022-08-07T16:50:37.047Z,23.43
2022-08-07T16:54:02.259Z,23.37
2022-08-07T16:56:17.293Z,23.33
2022-08-07T16:59:20.793Z,23.36
2022-08-07T17:02:51.529Z,23.13
2022-08-07T17:06:02.235Z,23.09
2022-08-07T17:08:01.880Z,22.99
2022-08-07T17:10:55.609Z,23.06
2022-08-07T17:13:41.369Z,23.05
2022-08-07T17:16:25.463Z,23.02
2022-08-07T17:18:51.945Z,22.94
2022-08-07T17:21:50.596Z,22.78
2022-08-07T17:24:47.985Z,22.62
2022-08-07T17:27:19.802Z,22.65
2022-08-07T17:30:15.779Z,22.57
2022-08-07T17:34:09.887Z,22.57
2022-08-07T17:36:26.235Z,22.58
2022-08-07T17:39:21.709Z,22.46
2022-08-07T17:42:01.595Z,22.34
2022-08-07T17:44:45.545Z,22.31
2022-08-07T17:47:38.624Z,22.32
2022-08-07T17:50:30.446Z,22.21
2022-08-07T17:53:00.516Z,22.06
2022-08-07T17:55:54.929Z,22.02
2022-08-07T17:58:31.585Z,22.04
2022-08-07T18:01:02.871Z,22.05
2022-08-07T18:04:06.848Z,22.03
2022-08-07T18:07:19.470Z,21.88
2022-08-07T18:09:48.435Z,21.80
2022-08-07T18:12:48.106Z,21.80
2022-08-07T18:15:32.516Z,21.77
2022-08-07T18:19:02.457Z,21.78
2022-08-07T18:21:38.380Z,21.74
2022-08-07T18:24:07.019Z,21.69
2022-08-07T18:26:48.730Z,21.69
2022-08-07T18:30:05.978Z,21.66
2022-08-07T18:32:52.851Z,21.57
2022-08-07T18:35:30.351Z,21.52
2022-08-07T18:38:56.384Z,21.47
2022-08-07T18:41:57.598Z,21.35
2022-08-07T18:44:45.985Z,21.33
2022-08-07T18:48:00.776Z,21.17
2022-08-07T18:50:47.021Z,21.14
2022-08-07T18:53:22.051Z,21.16
2022-08-07T18:56:33.770Z,21.19
2022-08-07T18:59:47.341Z,21.14
2022-08-07T19:02:34.367Z,21.00
2022-08-07T19:06:03.339Z,21.02
2022-08-07T19:08:26.506Z,20.96
2022-08-07T19:11:00.678Z,20.91
2022-08-07T19:13:55.437Z,20.81
2022-08-07T19:17:01.308Z,20.79
2022-08-07T19:19:28.001Z,20.70
2022-08-07T19:22:11.203Z,20.53
2022-08-07T19:24:46.243Z,20.45
2022-08-07T19:28:56.699Z,20.38
2022-08-07T19:31:05.372Z,20.30
2022-08-07T19:33:10.293Z,20.25
2022-08-07T19:35:42.454Z,20.21
2022-08-07T19:38:16.985Z,20.14
2022-08-07T19:40:49.452Z,20.12
2022-08-07T19:43:43.622Z,20.07
2022-08-07T19:46:10.698Z,19.98
2022-08-07T19:48:42.926Z,19.84
2022-08-07T19:51:19.203Z,19.85
2022-08-07T19:54:31.283Z,19.80
2022-08-07T19:58:00.785Z,19.71
2022-08-07T19:59:41.825Z,19.68
2022-08-07T20:02:19.003Z,19.61
2022-08-07T20:04:49.491Z,19.65
2022-08-07T20:07:23.962Z,19.67
2022-08-07T20:10:34.195Z,19.56
2022-08-07T20:12:54.966Z,19.51
2022-08-07T20:15:33.159Z,19.47
2022-08-07T20:18:06.337Z,19.36
2022-08-07T20:20:45.493Z,19.32
2022-08-07T20:23:41.963Z,19.29
2022-08-07T20:26:10.162Z,19.24
2022-08-07T20:28:39.890Z,19.15
2022-08-07T20:31:21.197Z,19.09
2022-08-07T20:33:56.702Z,19.01
2022-08-07T20:36:25.250Z,18.98
2022-08-07T20:39:00.318Z,18.98
2022-08-07T20:41:38.533Z,18.92
2022-08-07T20:44:12.626Z,18.86
2022-08-07T20:46:44.565Z,18.87
2022-08-07T20:49:57.884Z,18.82
2022-08-07T20:52:09.309Z,18.78
2022-08-07T20:54:45.627Z,18.75
2022-08-07T20:57:28.184Z,18.80
2022-08-07T21:00:06.501Z,18.76
2022-08-07T21:02:58.746Z,18.76
2022-08-07T21:05:51.461Z,18.65
2022-08-07T21:08:16.535Z,18.59
2022-08-07T21:10:50.749Z,18.57
2022-08-07T21:13:24.690Z,18.56
2022-08-07T21:16:09.146Z,18.56
2022-08-07T21:18:41.065Z,18.54
2022-08-07T21:21:16.434Z,18.49
2022-08-07T21:24:01.799Z,18.43
2022-08-07T21:26:54.940Z,18.35
2022-08-07T21:29:37.433Z,18.18
2022-08-07T21:32:47.132Z,18.20
2022-08-07T21:35:11.597Z,18.25
2022-08-07T21:37:58.439Z,18.15
2022-08-07T21:40:39.013Z,18.06
2022-08-07T21:43:13.927Z,18.00
2022-08-07T21:46:05.299Z,18.00
2022-08-07T21:48:48.298Z,18.02
2022-08-07T21:52:02.067Z,17.98
2022-08-07T21:54:34.366Z,17.95
2022-08-07T21:57:31.362Z,17.89
2022-08-07T22:00:20.508Z,17.86
2022-08-07T22:03:16.480Z,17.80
2022-08-07T22:05:50.059Z,17.77
2022-08-07T22:08:23.348Z,17.76
2022-08-07T22:10:57.927Z,17.72
2022-08-07T22:13:52.014Z,17.58
2022-08-07T22:16:44.258Z,17.52
2022-08-07T22:19:29.801Z,17.17
2022-08-07T22:22:21.086Z,16.78
2022-08-07T22:25:13.230Z,16.74
2022-08-07T22:28:10.261Z,16.81
2022-08-07T22:30:52.877Z,16.58
2022-08-07T22:33:53.221Z,16.35
2022-08-07T22:36:25.119Z,16.31
2022-08-07T22:38:58.963Z,16.23
2022-08-07T22:42:03.061Z,16.20
2022-08-07T22:44:24.832Z,16.15
2022-08-07T22:47:24.623Z,16.14
2022-08-07T22:50:10.498Z,16.19
2022-08-07T22:52:43.240Z,16.15
2022-08-07T22:55:30.053Z,16.08
2022-08-07T22:58:18.346Z,15.98
2022-08-07T23:01:12.830Z,15.88
2022-08-07T23:04:03.455Z,15.68
2022-08-07T23:06:51.521Z,15.59
2022-08-07T23:10:00.772Z,15.57
2022-08-07T23:13:00.585Z,15.42
2022-08-07T23:16:06.832Z,15.38
2022-08-07T23:19:13.714Z,15.24
2022-08-07T23:21:59.543Z,15.32
2022-08-07T23:24:56.241Z,15.44
2022-08-07T23:27:37.834Z,15.32
2022-08-07T23:31:06.399Z,15.28
2022-08-07T23:34:36.601Z,15.34
2022-08-07T23:37:19.256Z,15.42
2022-08-07T23:40:24.094Z,15.48
2022-08-07T23:43:38.208Z,15.41
2022-08-07T23:46:23.818Z,15.47
2022-08-07T23:49:19.102Z,15.41
2022-08-07T23:52:59.710Z,15.30
2022-08-07T23:54:53.193Z,15.12
2022-08-07T23:57:39.073Z,15.02
